createdAt,value
2022-10-22T00:01:04.307Z,100.00
2022-10-22T00:03:37.401Z,100.00
2022-10-22T00:06:07.123Z,100.00
2022-10-22T00:08:36.051Z,100.00
2022-10-22T00:11:10.222Z,100.00
2022-10-22T00:13:37.048Z,100.00
2022-10-22T00:16:07.738Z,100.00
2022-10-22T00:18:34.833Z,100.00
2022-10-22T00:21:01.842Z,100.00
2022-10-22T00:23:34.384Z,100.00
2022-10-22T00:26:01.374Z,100.00
2022-10-22T00:28:28.217Z,100.00
2022-10-22T00:31:01.307Z,100.00
2022-10-22T00:33:29.275Z,100.00
2022-10-22T00:35:56.170Z,100.00
2022-10-22T00:38:53.518Z,100.00
2022-10-22T00:41:20.382Z,100.00
2022-10-22T00:44:01.109Z,100.00
2022-10-22T00:46:28.305Z,100.00
2022-10-22T00:48:58.454Z,100.00
2022-10-22T00:51:26.701Z,100.00
2022-10-22T00:53:56.829Z,100.00
2022-10-22T00:56:24.060Z,100.00
2022-10-22T00:58:56.558Z,100.00
2022-10-22T01:01:29.799Z,100.00
2022-10-22T01:03:56.768Z,100.00
2022-10-22T01:06:28.362Z,100.00
2022-10-22T01:09:11.945Z,100.00
2022-10-22T01:11:47.437Z,100.00
2022-10-22T01:14:34.438Z,100.00
2022-10-22T01:17:22.242Z,100.00
2022-10-22T01:19:48.984Z,100.00
2022-10-22T01:22:30.787Z,100.00
2022-10-22T01:25:16.489Z,100.00
2022-10-22T01:27:56.731Z,100.00
2022-10-22T01:30:25.407Z,100.00
2022-10-22T01:32:54.191Z,100.00
2022-10-22T01:35:41.236Z,100.00
2022-10-22T01:38:10.541Z,100.00
2022-10-22T01:40:37.898Z,100.00
2022-10-22T01:43:05.869Z,100.00
2022-10-22T01:45:34.258Z,100.00
2022-10-22T01:48:00.879Z,100.00
2022-10-22T01:50:27.557Z,100.00
2022-10-22T01:53:27.919Z,100.00
2022-10-22T01:55:59.559Z,100.00
2022-10-22T01:58:44.811Z,100.00
2022-10-22T02:01:23.293Z,100.00
2022-10-22T02:04:01.193Z,100.00
2022-10-22T02:06:30.719Z,100.00
2022-10-22T02:08:58.751Z,100.00
2022-10-22T02:11:30.153Z,100.00
2022-10-22T02:14:00.860Z,100.00
2022-10-22T02:16:35.985Z,100.00
2022-10-22T02:19:05.425Z,100.00
2022-10-22T02:21:32.115Z,100.00
2022-10-22T02:23:58.809Z,100.00
2022-10-22T02:26:37.064Z,100.00
2022-10-22T02:29:20.041Z,100.00
2022-10-22T02:31:48.292Z,100.00
2022-10-22T02:34:18.232Z,100.00
2022-10-22T02:36:48.243Z,100.00
2022-10-22T02:39:20.962Z,100.00
2022-10-22T02:41:49.273Z,100.00
2022-10-22T02:44:21.229Z,100.00
2022-10-22T02:46:50.997Z,100.00
2022-10-22T02:49:20.266Z,100.00
2022-10-22T02:51:47.557Z,100.00
2022-10-22T02:54:14.450Z,100.00
2022-10-22T02:56:44.006Z,100.00
2022-10-22T02:59:10.726Z,100.00
2022-10-22T03:01:37.407Z,100.00
2022-10-22T03:04:04.984Z,100.00
2022-10-22T03:06:31.866Z,100.00
2022-10-22T03:08:58.532Z,100.00
2022-10-22T03:11:25.310Z,100.00
2022-10-22T03:13:56.015Z,100.00
2022-10-22T03:16:22.726Z,100.00
2022-10-22T03:18:49.988Z,100.00
2022-10-22T03:21:35.198Z,100.00
2022-10-22T03:24:05.334Z,100.00
2022-10-22T03:26:32.809Z,100.00
2022-10-22T03:29:00.382Z,100.00
2022-10-22T03:31:28.254Z,100.00
2022-10-22T03:33:54.956Z,100.00
2022-10-22T03:36:22.050Z,100.00
2022-10-22T03:38:49.313Z,100.00
2022-10-22T03:41:16.458Z,100.00
2022-10-22T03:43:48.954Z,100.00
2022-10-22T03:46:15.850Z,100.00
2022-10-22T03:48:42.591Z,100.00
2022-10-22T03:51:09.917Z,100.00
2022-10-22T03:53:38.925Z,100.00
2022-10-22T03:56:09.972Z,100.00
2022-10-22T03:58:40.336Z,100.00
2022-10-22T04:01:11.992Z,100.00
2022-10-22T04:03:38.922Z,100.00
2022-10-22T04:06:12.706Z,100.00
2022-10-22T04:08:40.282Z,100.00
2022-10-22T04:11:07.402Z,100.00
2022-10-22T04:13:34.806Z,100.00
2022-10-22T04:16:07.959Z,100.00
2022-10-22T04:18:35.229Z,100.00
2022-10-22T04:21:03.308Z,100.00
2022-10-22T04:23:29.778Z,100.00
2022-10-22T04:25:59.732Z,100.00
2022-10-22T04:28:26.444Z,100.00
2022-10-22T04:30:55.436Z,100.00
2022-10-22T04:33:23.780Z,100.00
2022-10-22T04:35:50.650Z,100.00
2022-10-22T04:38:18.977Z,100.00
2022-10-22T04:40:46.054Z,100.00
2022-10-22T04:43:13.165Z,100.00
2022-10-22T04:45:48.605Z,100.00
2022-10-22T04:48:15.239Z,100.00
2022-10-22T04:50:43.816Z,100.00
2022-10-22T04:53:10.602Z,100.00
2022-10-22T04:55:37.650Z,100.00
2022-10-22T04:58:06.842Z,100.00
2022-10-22T05:00:33.468Z,100.00
2022-10-22T05:03:00.184Z,100.00
2022-10-22T05:05:26.954Z,100.00
2022-10-22T05:07:53.573Z,100.00
2022-10-22T05:10:20.233Z,100.00
2022-10-22T05:12:49.734Z,100.00
2022-10-22T05:15:16.529Z,100.00
2022-10-22T05:17:43.358Z,100.00
2022-10-22T05:20:11.209Z,100.00
2022-10-22T05:22:37.850Z,100.00
2022-10-22T05:25:04.967Z,100.00
2022-10-22T05:27:31.922Z,100.00
2022-10-22T05:30:02.714Z,100.00
2022-10-22T05:32:29.387Z,100.00
2022-10-22T05:34:56.140Z,100.00
2022-10-22T05:37:24.347Z,100.00
2022-10-22T05:40:01.774Z,100.00
2022-10-22T05:42:41.594Z,100.00
2022-10-22T05:45:08.598Z,100.00
2022-10-22T05:47:35.340Z,100.00
2022-10-22T05:50:02.479Z,100.00
2022-10-22T05:52:30.736Z,100.00
2022-10-22T05:54:59.973Z,100.00
2022-10-22T05:57:26.874Z,100.00
2022-10-22T05:59:53.672Z,100.00
2022-10-22T06:02:23.393Z,100.00
2022-10-22T06:04:49.994Z,100.00
2022-10-22T06:07:16.583Z,100.00
2022-10-22T06:09:43.246Z,100.00
2022-10-22T06:12:12.186Z,100.00
2022-10-22T06:14:38.958Z,100.00
2022-10-22T06:17:05.591Z,100.00
2022-10-22T06:19:32.592Z,100.00
2022-10-22T06:21:59.305Z,100.00
2022-10-22T06:24:25.968Z,100.00
2022-10-22T06:26:52.751Z,100.00
2022-10-22T06:29:19.560Z,100.00
2022-10-22T06:31:46.196Z,100.00
2022-10-22T06:34:13.644Z,100.00
2022-10-22T06:39:14.542Z,100.00
2022-10-22T06:41:41.476Z,100.00
2022-10-22T06:44:13.248Z,100.00
2022-10-22T06:46:43.402Z,100.00
2022-10-22T06:49:13.964Z,100.00
2022-10-22T06:51:40.799Z,100.00
2022-10-22T06:54:08.726Z,100.00
2022-10-22T06:56:35.520Z,100.00
2022-10-22T06:59:02.577Z,100.00
2022-10-22T07:01:30.983Z,100.00
2022-10-22T07:03:58.091Z,100.00
2022-10-22T07:06:25.552Z,100.00
2022-10-22T07:08:53.118Z,100.00
2022-10-22T07:11:30.506Z,100.00
2022-10-22T07:13:58.075Z,100.00
2022-10-22T07:16:29.577Z,100.00
2022-10-22T07:18:59.668Z,100.00
2022-10-22T07:21:26.386Z,100.00
2022-10-22T07:23:53.924Z,100.00
2022-10-22T07:26:24.901Z,100.00
2022-10-22T07:28:52.827Z,100.00
2022-10-22T07:31:19.397Z,100.00
2022-10-22T07:33:46.117Z,100.00
2022-10-22T07:36:17.312Z,100.00
2022-10-22T07:38:47.439Z,100.00
2022-10-22T07:41:15.599Z,100.00
2022-10-22T07:43:42.815Z,100.00
2022-10-22T07:46:09.435Z,100.00
2022-10-22T07:48:38.879Z,100.00
2022-10-22T07:51:05.497Z,100.00
2022-10-22T07:53:32.146Z,100.00
2022-10-22T07:55:59.089Z,100.00
2022-10-22T07:58:25.736Z,100.00
2022-10-22T08:00:54.831Z,100.00
2022-10-22T08:03:21.410Z,100.00
2022-10-22T08:05:48.241Z,100.00
2022-10-22T08:08:15.753Z,100.00
2022-10-22T08:10:42.882Z,100.00
2022-10-22T08:13:09.546Z,100.00
2022-10-22T08:15:36.148Z,100.00
2022-10-22T08:18:04.107Z,100.00
2022-10-22T08:20:30.797Z,100.00
2022-10-22T08:22:58.175Z,100.00
2022-10-22T08:25:25.038Z,100.00
2022-10-22T08:27:51.861Z,100.00
2022-10-22T08:30:19.436Z,100.00
2022-10-22T08:32:46.157Z,100.00
2022-10-22T08:35:15.384Z,100.00
2022-10-22T08:37:45.524Z,100.00
2022-10-22T08:40:24.951Z,100.00
2022-10-22T08:43:17.742Z,100.00
2022-10-22T08:45:44.352Z,100.00
2022-10-22T08:48:21.932Z,99.35
2022-10-22T08:50:51.230Z,96.44
2022-10-22T08:53:20.246Z,96.62
2022-10-22T08:55:49.209Z,91.75
2022-10-22T08:58:21.954Z,91.58
2022-10-22T09:00:55.890Z,86.56
2022-10-22T09:03:26.536Z,85.06
2022-10-22T09:06:02.643Z,80.53
2022-10-22T09:08:31.554Z,85.14
2022-10-22T09:11:02.179Z,86.77
2022-10-22T09:13:29.247Z,86.51
2022-10-22T09:15:59.279Z,83.28
2022-10-22T09:18:32.119Z,83.45
2022-10-22T09:21:02.508Z,82.36
2022-10-22T09:23:36.689Z,79.33
2022-10-22T09:26:11.645Z,77.88
2022-10-22T09:28:38.188Z,79.31
2022-10-22T09:31:14.392Z,77.59
2022-10-22T09:33:42.996Z,77.31
2022-10-22T09:36:13.981Z,77.53
2022-10-22T09:38:46.087Z,78.43
2022-10-22T09:41:16.321Z,76.73
2022-10-22T09:43:42.906Z,76.85
2022-10-22T09:46:20.446Z,77.19
2022-10-22T09:49:04.116Z,75.23
2022-10-22T09:51:57.064Z,74.56
2022-10-22T09:54:32.686Z,75.18
2022-10-22T09:57:09.825Z,73.91
2022-10-22T09:59:37.249Z,74.00
2022-10-22T10:02:20.031Z,69.84
2022-10-22T10:04:55.925Z,71.51
2022-10-22T10:07:24.278Z,71.12
2022-10-22T10:09:52.877Z,72.12
2022-10-22T10:12:19.574Z,70.61
2022-10-22T10:15:01.365Z,69.80
2022-10-22T10:17:44.560Z,68.50
2022-10-22T10:20:23.804Z,68.05
2022-10-22T10:23:09.026Z,66.75
2022-10-22T10:25:38.749Z,65.66
2022-10-22T10:28:14.641Z,64.07
2022-10-22T10:31:10.566Z,64.59
2022-10-22T10:33:46.529Z,62.12
2022-10-22T10:36:19.525Z,61.58
2022-10-22T10:39:09.693Z,61.76
2022-10-22T10:41:48.403Z,63.77
2022-10-22T10:44:33.764Z,62.85
2022-10-22T10:47:10.845Z,62.90
2022-10-22T10:49:37.283Z,59.85
2022-10-22T10:52:22.669Z,57.60
2022-10-22T10:55:07.659Z,58.04
2022-10-22T10:57:52.394Z,57.96
2022-10-22T11:00:19.716Z,57.60
2022-10-22T11:02:46.432Z,58.07
2022-10-22T11:05:24.143Z,59.28
2022-10-22T11:07:57.015Z,59.35
2022-10-22T11:10:29.710Z,58.10
2022-10-22T11:13:01.678Z,58.90
2022-10-22T11:15:33.065Z,58.14
2022-10-22T11:18:19.777Z,58.56
2022-10-22T11:20:52.775Z,57.44
2022-10-22T11:23:49.096Z,55.96
2022-10-22T11:26:27.194Z,58.87
2022-10-22T11:28:59.215Z,58.26
2022-10-22T11:31:26.612Z,57.43
2022-10-22T11:34:10.164Z,55.50
2022-10-22T11:36:48.879Z,54.78
2022-10-22T11:39:37.635Z,53.26
2022-10-22T11:42:06.077Z,53.55
2022-10-22T11:44:44.741Z,54.81
2022-10-22T11:47:24.125Z,53.78
2022-10-22T11:49:57.008Z,53.96
2022-10-22T11:52:32.710Z,53.68
2022-10-22T11:55:19.383Z,54.64
2022-10-22T11:57:47.225Z,54.58
2022-10-22T12:00:33.800Z,54.72
2022-10-22T12:03:15.175Z,54.96
2022-10-22T12:05:42.392Z,54.17
2022-10-22T12:08:13.441Z,54.23
2022-10-22T12:10:50.556Z,54.84
2022-10-22T12:13:26.677Z,55.03
2022-10-22T12:15:56.024Z,53.71
2022-10-22T12:18:27.902Z,53.51
2022-10-22T12:20:54.825Z,52.60
2022-10-22T12:23:26.239Z,53.47
2022-10-22T12:25:52.921Z,52.41
2022-10-22T12:28:22.523Z,52.94
2022-10-22T12:30:59.467Z,53.42
2022-10-22T12:33:27.694Z,53.73
2022-10-22T12:35:56.999Z,53.28
2022-10-22T12:38:24.944Z,52.42
2022-10-22T12:40:54.150Z,52.28
2022-10-22T12:43:32.920Z,53.17
2022-10-22T12:45:59.755Z,53.63
2022-10-22T12:48:30.446Z,54.18
2022-10-22T12:51:01.171Z,54.45
2022-10-22T12:53:34.392Z,54.59
2022-10-22T12:56:03.352Z,54.95
2022-10-22T12:58:33.998Z,55.11
2022-10-22T13:01:01.563Z,55.14
2022-10-22T13:03:37.989Z,55.01
2022-10-22T13:06:35.332Z,55.40
2022-10-22T13:09:20.440Z,55.57
2022-10-22T13:12:01.100Z,56.24
2022-10-22T13:14:29.806Z,56.67
2022-10-22T13:17:28.754Z,56.67
2022-10-22T13:19:55.257Z,56.75
2022-10-22T13:22:33.253Z,56.83
2022-10-22T13:25:24.546Z,56.73
2022-10-22T13:28:01.578Z,56.93
2022-10-22T13:30:32.643Z,57.54
2022-10-22T13:32:59.475Z,57.83
2022-10-22T13:35:27.706Z,57.86
2022-10-22T13:37:54.485Z,58.73
2022-10-22T13:40:21.505Z,59.16
2022-10-22T13:42:48.160Z,59.35
2022-10-22T13:45:14.862Z,59.51
2022-10-22T13:47:42.848Z,59.75
2022-10-22T13:50:14.249Z,60.23
2022-10-22T13:52:49.802Z,60.65
2022-10-22T13:55:18.508Z,61.76
2022-10-22T13:57:45.361Z,62.67
2022-10-22T14:00:14.302Z,62.89
2022-10-22T14:02:42.681Z,62.87
2022-10-22T14:05:10.750Z,63.59
2022-10-22T14:07:38.621Z,63.81
2022-10-22T14:10:24.421Z,64.14
2022-10-22T14:12:53.431Z,64.58
2022-10-22T14:15:23.162Z,65.22
2022-10-22T14:17:54.508Z,65.84
2022-10-22T14:20:25.272Z,66.37
2022-10-22T14:22:52.320Z,66.17
2022-10-22T14:25:20.692Z,66.35
2022-10-22T14:27:47.388Z,66.94
2022-10-22T14:30:17.713Z,68.08
2022-10-22T14:32:44.943Z,68.60
2022-10-22T14:35:13.264Z,68.96
2022-10-22T14:37:40.267Z,69.03
2022-10-22T14:40:07.848Z,69.17
2022-10-22T14:42:38.238Z,69.69
2022-10-22T14:45:11.071Z,70.57
2022-10-22T14:47:37.613Z,71.30
2022-10-22T14:50:06.169Z,72.17
2022-10-22T14:52:32.864Z,71.99
2022-10-22T14:54:59.501Z,71.99
2022-10-22T14:57:27.623Z,72.21
2022-10-22T14:59:54.355Z,72.67
2022-10-22T15:02:21.173Z,72.74
2022-10-22T15:04:48.351Z,72.59
2022-10-22T15:07:19.004Z,72.84
2022-10-22T15:09:45.621Z,73.73
2022-10-22T15:12:12.220Z,73.90
2022-10-22T15:14:38.782Z,73.71
2022-10-22T15:17:05.405Z,73.66
2022-10-22T15:19:31.940Z,73.46
2022-10-22T15:21:58.669Z,73.72
2022-10-22T15:24:25.256Z,74.13
2022-10-22T15:26:53.453Z,74.61
2022-10-22T15:29:20.079Z,74.89
2022-10-22T15:31:51.383Z,74.86
2022-10-22T15:34:18.876Z,75.59
2022-10-22T15:36:45.760Z,75.86
2022-10-22T15:39:12.630Z,76.11
2022-10-22T15:41:39.249Z,76.08
2022-10-22T15:44:05.935Z,78.21
2022-10-22T15:46:34.715Z,78.16
2022-10-22T15:49:02.042Z,77.63
2022-10-22T15:51:28.610Z,76.99
2022-10-22T15:53:56.707Z,76.32
2022-10-22T15:56:23.995Z,76.38
2022-10-22T15:58:58.488Z,76.78
2022-10-22T16:01:25.548Z,76.99
2022-10-22T16:03:59.411Z,77.27
2022-10-22T16:06:26.890Z,77.57
2022-10-22T16:08:54.651Z,77.28
2022-10-22T16:11:21.566Z,76.94
2022-10-22T16:13:48.100Z,76.84
2022-10-22T16:16:14.675Z,76.87
2022-10-22T16:18:41.310Z,76.99
2022-10-22T16:21:11.637Z,77.12
2022-10-22T16:23:38.130Z,76.85
2022-10-22T16:26:04.869Z,76.85
2022-10-22T16:28:31.458Z,77.24
2022-10-22T16:31:01.121Z,77.57
2022-10-22T16:33:27.724Z,77.43
2022-10-22T16:35:54.198Z,77.53
2022-10-22T16:38:20.690Z,77.36
2022-10-22T16:40:47.324Z,77.08
2022-10-22T16:43:13.949Z,76.94
2022-10-22T16:45:46.337Z,77.40
2022-10-22T16:48:12.979Z,76.91
2022-10-22T16:50:39.480Z,77.45
2022-10-22T16:53:05.937Z,77.64
2022-10-22T16:55:41.626Z,77.40
2022-10-22T16:58:08.260Z,77.43
2022-10-22T17:00:35.025Z,76.77
2022-10-22T17:03:01.694Z,76.44
2022-10-22T17:05:28.357Z,76.31
2022-10-22T17:07:55.142Z,76.78
2022-10-22T17:12:55.920Z,77.54
2022-10-22T17:15:22.523Z,77.55
2022-10-22T17:17:53.171Z,78.05
2022-10-22T17:20:24.394Z,78.21
2022-10-22T17:22:51.028Z,78.18
2022-10-22T17:25:21.551Z,78.11
2022-10-22T17:27:48.539Z,78.09
2022-10-22T17:30:17.292Z,78.34
2022-10-22T17:32:44.310Z,78.58
2022-10-22T17:35:11.708Z,78.84
2022-10-22T17:37:39.821Z,78.72
2022-10-22T17:40:07.198Z,78.77
2022-10-22T17:42:33.718Z,84.83
2022-10-22T17:45:00.519Z,84.61
2022-10-22T17:47:27.094Z,83.97
2022-10-22T17:49:53.617Z,83.76
2022-10-22T17:52:20.239Z,83.76
2022-10-22T17:54:47.826Z,84.18
2022-10-22T17:57:14.318Z,85.49
2022-10-22T17:59:40.902Z,85.97
2022-10-22T18:02:09.665Z,86.12
2022-10-22T18:04:36.703Z,86.11
2022-10-22T18:07:05.501Z,86.43
2022-10-22T18:09:33.055Z,86.47
2022-10-22T18:12:01.097Z,88.41
2022-10-22T18:14:27.935Z,88.89
2022-10-22T18:16:54.533Z,87.57
2022-10-22T18:19:23.837Z,94.84
2022-10-22T18:21:50.748Z,93.42
2022-10-22T18:24:17.401Z,93.68
2022-10-22T18:26:44.430Z,93.49
2022-10-22T18:29:14.034Z,94.27
2022-10-22T18:31:40.624Z,99.36
2022-10-22T18:34:07.316Z,96.28
2022-10-22T18:36:34.056Z,96.61
2022-10-22T18:39:02.004Z,95.17
2022-10-22T18:41:29.769Z,94.89
2022-10-22T18:43:57.876Z,97.85
2022-10-22T18:46:25.211Z,97.42
2022-10-22T18:48:52.941Z,96.98
2022-10-22T18:51:19.554Z,96.07
2022-10-22T18:53:59.136Z,99.44
2022-10-22T18:56:32.284Z,100.00
2022-10-22T18:58:59.095Z,99.62
2022-10-22T19:01:29.481Z,99.27
2022-10-22T19:03:57.310Z,99.41
2022-10-22T19:06:33.318Z,98.54
2022-10-22T19:09:03.646Z,100.00
2022-10-22T19:11:30.793Z,100.00
2022-10-22T19:13:57.815Z,100.00
2022-10-22T19:16:25.429Z,100.00
2022-10-22T19:18:54.141Z,100.00
2022-10-22T19:21:21.266Z,100.00
2022-10-22T19:23:48.834Z,100.00
2022-10-22T19:26:18.357Z,100.00
2022-10-22T19:28:47.815Z,100.00
2022-10-22T19:31:16.699Z,100.00
2022-10-22T19:33:43.425Z,100.00
2022-10-22T19:36:11.697Z,100.00
2022-10-22T19:38:39.319Z,100.00
2022-10-22T19:41:06.725Z,100.00
2022-10-22T19:43:33.405Z,100.00
2022-10-22T19:46:00.033Z,100.00
2022-10-22T19:48:28.211Z,100.00
2022-10-22T19:51:02.494Z,100.00
2022-10-22T19:53:29.834Z,100.00
2022-10-22T19:56:01.200Z,100.00
2022-10-22T19:58:30.289Z,100.00
2022-10-22T20:00:56.962Z,100.00
2022-10-22T20:03:23.691Z,100.00
2022-10-22T20:05:54.477Z,100.00
2022-10-22T20:08:21.215Z,100.00
2022-10-22T20:10:48.669Z,100.00
2022-10-22T20:13:15.792Z,100.00
2022-10-22T20:15:42.337Z,100.00
2022-10-22T20:18:09.039Z,100.00
2022-10-22T20:20:38.792Z,100.00
2022-10-22T20:23:06.762Z,100.00
2022-10-22T20:25:34.589Z,100.00
2022-10-22T20:28:01.783Z,100.00
2022-10-22T20:30:28.243Z,100.00
2022-10-22T20:32:56.030Z,100.00
2022-10-22T20:35:22.577Z,100.00
2022-10-22T20:37:53.801Z,100.00
2022-10-22T20:40:20.545Z,100.00
2022-10-22T20:42:49.064Z,100.00
2022-10-22T20:45:15.928Z,100.00
2022-10-22T20:47:51.349Z,100.00
2022-10-22T20:50:20.728Z,100.00
2022-10-22T20:52:48.291Z,100.00
2022-10-22T20:57:46.390Z,100.00
2022-10-22T21:00:13.170Z,100.00
2022-10-22T21:02:39.843Z,100.00
2022-10-22T21:05:06.796Z,100.00
2022-10-22T21:07:33.505Z,100.00
2022-10-22T21:10:00.259Z,100.00
2022-10-22T21:12:27.028Z,100.00
2022-10-22T21:14:53.590Z,100.00
2022-10-22T21:17:20.324Z,100.00
2022-10-22T21:19:46.830Z,100.00
2022-10-22T21:22:13.394Z,100.00
2022-10-22T21:24:40.703Z,100.00
2022-10-22T21:27:07.453Z,100.00
2022-10-22T21:29:33.978Z,100.00
2022-10-22T21:32:00.610Z,100.00
2022-10-22T21:34:27.192Z,100.00
2022-10-22T21:36:53.816Z,100.00
2022-10-22T21:39:20.635Z,100.00
2022-10-22T21:41:48.605Z,100.00
2022-10-22T21:44:15.744Z,100.00
2022-10-22T21:46:42.367Z,100.00
2022-10-22T21:49:10.212Z,100.00
2022-10-22T21:51:37.802Z,100.00
2022-10-22T21:54:04.727Z,100.00
2022-10-22T21:56:32.990Z,100.00
2022-10-22T21:59:00.238Z,100.00
2022-10-22T22:01:26.924Z,100.00
2022-10-22T22:03:53.667Z,100.00
2022-10-22T22:06:22.062Z,100.00
2022-10-22T22:08:52.418Z,100.00
2022-10-22T22:11:20.381Z,100.00
2022-10-22T22:13:53.313Z,100.00
2022-10-22T22:16:23.960Z,100.00
2022-10-22T22:18:53.819Z,100.00
2022-10-22T22:21:20.885Z,100.00
2022-10-22T22:23:48.521Z,100.00
2022-10-22T22:26:16.497Z,100.00
2022-10-22T22:28:43.205Z,100.00
2022-10-22T22:31:12.846Z,100.00
2022-10-22T22:33:39.380Z,100.00
2022-10-22T22:36:06.121Z,100.00
2022-10-22T22:38:32.842Z,100.00
2022-10-22T22:41:02.208Z,100.00
2022-10-22T22:43:31.838Z,100.00
2022-10-22T22:45:59.485Z,100.00
2022-10-22T22:48:26.165Z,100.00
2022-10-22T22:50:52.762Z,100.00
2022-10-22T22:53:19.366Z,100.00
2022-10-22T22:55:46.146Z,100.00
2022-10-22T22:58:12.732Z,100.00
2022-10-22T23:03:10.781Z,100.00
2022-10-22T23:05:37.441Z,100.00
2022-10-22T23:08:04.017Z,100.00
2022-10-22T23:10:30.625Z,100.00
2022-10-22T23:12:58.603Z,100.00
2022-10-22T23:15:34.494Z,100.00
2022-10-22T23:18:02.168Z,100.00
2022-10-22T23:20:28.786Z,100.00
2022-10-22T23:22:57.706Z,100.00
2022-10-22T23:25:24.174Z,100.00
2022-10-22T23:27:50.676Z,100.00
2022-10-22T23:30:17.243Z,100.00
2022-10-22T23:32:43.799Z,100.00
2022-10-22T23:35:10.395Z,100.00
2022-10-22T23:37:39.351Z,100.00
2022-10-22T23:40:09.325Z,100.00
2022-10-22T23:45:10.316Z,100.00
2022-10-22T23:47:37.264Z,100.00
2022-10-22T23:50:03.943Z,100.00
2022-10-22T23:52:30.546Z,100.00
2022-10-22T23:55:04.976Z,100.00
2022-10-22T23:57:31.483Z,100.00
2022-10-22T23:59:59.305Z,100.00
